Shiocton, Wisconsin
Current Conditions -  °F | °C
As of 7:45 PM on Friday 31 Oct 2014 (Local Time) from KATW Reporting Station
Broken Clouds Broken Clouds  
Wind Chill: 22°   Ceiling: 4500
Heat Index: 34°   Visibility: 10mi
Dew Point: 16°   Wind: 20mph
Humidity: 48%   Direction: 20°NNE
Pressure: 30.42"   Gusts: NA
Location:  44.44°N, 88.58°W
Report Text: KATW 010045Z 02017KT 10SM BKN045 01/M09 A3042
Loading
Personal Weather Stations






























Interactive Weather Map
Tropical Storm Tracking
New forecast layout! Learn more

10-Day Weather Forecast

Advertisements
Track Severe Weather on mobile